Time,TemperatureF,DewpointF,PressureIn,WindDirection,WindDirectionDegrees,WindSpeedMPH,WindSpeedGustMPH,Humidity,HourlyPrecipIn,Conditions,Clouds,dailyrainin,SoftwareType,DateUTC
2013-05-13 00:22:00,88.0,39.0,29.86,SE,130,2.0,9.0,18,0.00,,,-99.99,,2013-05-13 07:22:00,
2013-05-13 00:31:00,88.0,39.0,29.86,SE,130,2.0,9.0,18,0.00,,,-99.99,,2013-05-13 07:31:00,
2013-05-13 00:41:00,88.0,39.0,29.86,SE,130,2.0,9.0,18,0.00,,,-99.99,,2013-05-13 07:41:00,
2013-05-13 01:21:00,86.0,39.0,29.86,ESE,120,7.0,12.0,19,0.00,,,-99.99,,2013-05-13 08:21:00,
2013-05-13 01:31:00,86.0,39.0,29.86,ESE,120,7.0,12.0,19,0.00,,,-99.99,,2013-05-13 08:31:00,
2013-05-13 01:42:00,86.0,39.0,29.86,ESE,120,7.0,12.0,19,0.00,,,-99.99,,2013-05-13 08:42:00,
2013-05-13 02:21:00,86.0,39.0,29.84,North,0,0.0,9.0,19,0.00,,,-99.99,,2013-05-13 09:21:00,
2013-05-13 02:33:00,86.0,39.0,29.84,North,0,0.0,9.0,19,0.00,,,-99.99,,2013-05-13 09:33:00,
2013-05-13 02:42:00,86.0,39.0,29.84,North,0,0.0,9.0,19,0.00,,,-99.99,,2013-05-13 09:42:00,
2013-05-13 03:22:00,86.0,38.0,29.83,ESE,110,2.0,7.0,18,0.00,,,-99.99,,2013-05-13 10:22:00,
2013-05-13 03:32:00,86.0,38.0,29.83,ESE,110,2.0,7.0,18,0.00,,,-99.99,,2013-05-13 10:32:00,
2013-05-13 03:42:00,86.0,38.0,29.83,ESE,110,2.0,7.0,18,0.00,,,-99.99,,2013-05-13 10:42:00,
2013-05-13 04:21:00,84.0,37.0,29.84,North,-999,0.0,0.0,19,0.00,,,-99.99,,2013-05-13 11:21:00,
2013-05-13 04:32:00,84.0,37.0,29.84,North,-999,0.0,0.0,19,0.00,,,-99.99,,2013-05-13 11:32:00,
2013-05-13 04:42:00,82.0,34.0,29.84,North,0,0.0,4.0,18,0.00,,,-99.99,,2013-05-13 11:42:00,
2013-05-13 05:21:00,82.0,34.0,29.84,North,0,0.0,4.0,18,0.00,,,-99.99,,2013-05-13 12:21:00,
2013-05-13 05:32:00,82.0,34.0,29.84,North,0,0.0,4.0,18,0.00,,,-99.99,,2013-05-13 12:32:00,
2013-05-13 06:21:00,84.0,31.0,29.85,East,100,15.0,19.0,15,0.00,,,-99.99,,2013-05-13 13:21:00,
2013-05-13 06:31:00,84.0,31.0,29.85,East,100,15.0,19.0,15,0.00,,,-99.99,,2013-05-13 13:31:00,
2013-05-13 08:21:00,90.0,36.0,29.87,North,-999,0.0,0.0,15,0.00,,,-99.99,,2013-05-13 15:21:00,
2013-05-13 08:31:00,90.0,36.0,29.87,North,-999,0.0,0.0,15,0.00,,,-99.99,,2013-05-13 15:31:00,
2013-05-13 08:42:00,90.0,36.0,29.87,North,-999,0.0,0.0,15,0.00,,,-99.99,,2013-05-13 15:42:00,
2013-05-13 09:21:00,95.0,36.0,29.88,NE,50,1.0,6.0,13,0.00,,,-99.99,,2013-05-13 16:21:00,
2013-05-13 09:33:00,95.0,36.0,29.88,NE,50,1.0,6.0,13,0.00,,,-99.99,,2013-05-13 16:33:00,
2013-05-13 09:42:00,95.0,34.0,29.88,NE,50,1.0,15.0,12,0.00,,,-99.99,,2013-05-13 16:42:00,
2013-05-13 10:21:00,95.0,34.0,29.88,NE,50,1.0,15.0,12,0.00,,,-99.99,,2013-05-13 17:21:00,
2013-05-13 10:32:00,95.0,34.0,29.88,NE,50,1.0,15.0,12,0.00,,,-99.99,,2013-05-13 17:32:00,
2013-05-13 10:42:00,98.0,37.0,29.88,ENE,60,7.0,11.0,12,0.00,,,-99.99,,2013-05-13 17:42:00,
2013-05-13 11:23:00,98.0,37.0,29.88,ENE,60,7.0,11.0,12,0.00,,,-99.99,,2013-05-13 18:23:00,
2013-05-13 11:32:00,98.0,37.0,29.88,ENE,60,7.0,11.0,12,0.00,,,-99.99,,2013-05-13 18:32:00,
2013-05-13 11:42:00,99.0,37.0,29.87,North,0,0.0,17.0,12,0.00,,,-99.99,,2013-05-13 18:42:00,
2013-05-13 12:21:00,99.0,37.0,29.87,North,0,0.0,17.0,12,0.00,,,-99.99,,2013-05-13 19:21:00,
2013-05-13 12:32:00,99.0,37.0,29.87,North,0,0.0,17.0,12,0.00,,,-99.99,,2013-05-13 19:32:00,
2013-05-13 12:42:00,102.0,35.0,29.85,ESE,110,7.0,14.0,10,0.00,,,-99.99,,2013-05-13 19:42:00,
2013-05-13 13:23:00,102.0,35.0,29.85,ESE,110,7.0,14.0,10,0.00,,,-99.99,,2013-05-13 20:23:00,
2013-05-13 13:33:00,102.0,35.0,29.85,ESE,110,7.0,14.0,10,0.00,,,-99.99,,2013-05-13 20:33:00,
2013-05-13 13:42:00,103.0,33.0,29.83,SE,130,9.0,28.0,9,0.00,,,-99.99,,2013-05-13 20:42:00,
2013-05-13 14:23:00,103.0,33.0,29.83,SE,130,9.0,28.0,9,0.00,,,-99.99,,2013-05-13 21:23:00,
2013-05-13 14:33:00,103.0,33.0,29.83,SE,130,9.0,28.0,9,0.00,,,-99.99,,2013-05-13 21:33:00,
2013-05-13 15:23:00,103.0,36.0,29.80,SE,140,12.0,33.0,10,0.00,,,-99.99,,2013-05-13 22:23:00,
2013-05-13 15:32:00,103.0,36.0,29.80,SE,140,12.0,33.0,10,0.00,,,-99.99,,2013-05-13 22:32:00,
2013-05-13 15:42:00,103.0,36.0,29.80,SE,140,12.0,33.0,10,0.00,,,-99.99,,2013-05-13 22:42:00,
2013-05-13 16:23:00,104.0,34.0,29.78,SSE,150,17.0,28.0,9,0.00,,,-99.99,,2013-05-13 23:23:00,
2013-05-13 16:33:00,104.0,34.0,29.78,SSE,150,17.0,28.0,9,0.00,,,-99.99,,2013-05-13 23:33:00,
2013-05-13 16:42:00,104.0,34.0,29.78,SSE,150,17.0,28.0,9,0.00,,,-99.99,,2013-05-13 23:42:00,
2013-05-13 17:22:00,103.0,33.0,29.75,North,0,0.0,22.0,9,0.00,,,-99.99,,2013-05-14 00:22:00,
2013-05-13 17:31:00,103.0,33.0,29.75,North,0,0.0,22.0,9,0.00,,,-99.99,,2013-05-14 00:31:00,
2013-05-13 17:41:00,103.0,33.0,29.75,North,0,0.0,22.0,9,0.00,,,-99.99,,2013-05-14 00:41:00,
2013-05-13 17:43:00,102.0,32.0,29.74,SSE,150,12.0,19.0,9,0.00,,,-99.99,,2013-05-14 00:43:00,
2013-05-13 18:21:00,102.0,32.0,29.74,SSE,150,12.0,19.0,9,0.00,,,-99.99,,2013-05-14 01:21:00,
2013-05-13 18:31:00,102.0,32.0,29.74,SSE,150,12.0,19.0,9,0.00,,,-99.99,,2013-05-14 01:31:00,
2013-05-13 19:22:00,100.0,31.0,29.74,SSE,150,8.0,16.0,9,0.00,,,-99.99,,2013-05-14 02:22:00,
2013-05-13 19:31:00,100.0,31.0,29.74,SSE,150,8.0,16.0,9,0.00,,,-99.99,,2013-05-14 02:31:00,
2013-05-13 19:42:00,100.0,31.0,29.74,SSE,150,8.0,16.0,9,0.00,,,-99.99,,2013-05-14 02:42:00,
2013-05-13 20:21:00,97.0,38.0,29.76,WSW,240,4.0,18.0,13,0.00,,,-99.99,,2013-05-14 03:21:00,
2013-05-13 20:33:00,97.0,38.0,29.76,WSW,240,4.0,18.0,13,0.00,,,-99.99,,2013-05-14 03:33:00,
2013-05-13 20:42:00,97.0,38.0,29.76,WSW,240,4.0,18.0,13,0.00,,,-99.99,,2013-05-14 03:42:00,
2013-05-13 21:22:00,95.0,36.0,29.76,West,280,16.0,26.0,13,0.00,,,-99.99,,2013-05-14 04:22:00,
2013-05-13 21:32:00,95.0,36.0,29.76,West,280,16.0,26.0,13,0.00,,,-99.99,,2013-05-14 04:32:00,
2013-05-13 22:42:00,92.0,36.0,29.78,NNW,330,13.0,20.0,14,0.00,,,-99.99,,2013-05-14 05:42:00,
2013-05-13 23:22:00,92.0,36.0,29.78,NNW,330,13.0,20.0,14,0.00,,,-99.99,,2013-05-14 06:22:00,
2013-05-13 23:32:00,92.0,36.0,29.78,NNW,330,13.0,20.0,14,0.00,,,-99.99,,2013-05-14 06:32:00,